Time;durP1;ratioP1;P1;durP2;ratioP2;P2;SDS_P1;SDS_P2;PMS_P1;PMS_P2;Temp;Humidity;BMP_temperature;BMP_pressure;BME280_temperature;BME280_humidity;BME280_pressure;Samples;Min_cycle;Max_cycle;Signal;HPM_P1;HPM_P2
2021/06/27 00:01:20;;;;;;;;;17.00;15.75;;;;;;;;5056711;28;45440;-78
2021/06/27 00:03:45;;;;;;;;;15.00;14.50;;;;;;;;5058619;28;45504;-77
2021/06/27 00:06:10;;;;;;;;;19.50;14.50;;;;;;;;5051440;28;45556;-78
2021/06/27 00:08:36;;;;;;;;;18.50;15.25;;;;;;;;5051667;28;45532;-78
2021/06/27 00:11:02;;;;;;;;;22.00;14.50;;;;;;;;5051029;28;45411;-77
2021/06/27 00:13:28;;;;;;;;;19.00;17.25;;;;;;;;5051682;28;46294;-78
2021/06/27 00:15:54;;;;;;;;;18.50;16.50;;;;;;;;5052336;28;45927;-78
2021/06/27 00:18:20;;;;;;;;;14.50;14.50;;;;;;;;5049961;28;45518;-78
2021/06/27 00:20:47;;;;;;;;;15.25;14.00;;;;;;;;5053950;28;45847;-78
2021/06/27 00:23:13;;;;;;;;;19.25;16.00;;;;;;;;5059943;27;47442;-78
2021/06/27 00:25:39;;;;;;;;;16.50;15.00;;;;;;;;5051345;28;45331;-78
2021/06/27 00:28:05;;;;;;;;;18.00;15.25;;;;;;;;5083076;27;45571;-78
2021/06/27 00:30:31;;;;;;;;;16.00;16.00;;;;;;;;5055321;28;45514;-78
2021/06/27 00:32:57;;;;;;;;;18.50;16.50;;;;;;;;5051665;28;47969;-78
2021/06/27 00:35:22;;;;;;;;;15.50;15.50;;;;;;;;5051532;28;45629;-78
2021/06/27 00:37:48;;;;;;;;;20.75;18.00;;;;;;;;5054256;28;45603;-78
2021/06/27 00:40:15;;;;;;;;;16.00;15.50;;;;;;;;5054113;28;45411;-78
2021/06/27 00:42:40;;;;;;;;;18.00;16.50;;;;;;;;5055041;28;48244;-78
2021/06/27 00:45:07;;;;;;;;;20.75;17.25;;;;;;;;5050524;28;45388;-78
2021/06/27 00:47:33;;;;;;;;;19.50;16.50;;;;;;;;5048481;28;45452;-78
2021/06/27 00:49:59;;;;;;;;;18.75;17.50;;;;;;;;5050598;28;45546;-77
2021/06/27 00:52:25;;;;;;;;;20.67;17.00;;;;;;;;5054611;28;45602;-78
2021/06/27 00:54:50;;;;;;;;;19.50;17.75;;;;;;;;5061271;28;45607;-78
2021/06/27 00:57:15;;;;;;;;;19.75;17.50;;;;;;;;5059987;28;45416;-80
2021/06/27 00:59:41;;;;;;;;;20.50;18.50;;;;;;;;5056805;28;45465;-79
2021/06/27 01:02:06;;;;;;;;;19.75;16.75;;;;;;;;5059554;28;46313;-77
2021/06/27 01:04:32;;;;;;;;;19.67;19.00;;;;;;;;5052556;28;45479;-78
2021/06/27 01:06:57;;;;;;;;;20.33;15.00;;;;;;;;5057776;28;45513;-78
2021/06/27 01:09:22;;;;;;;;;21.00;20.00;;;;;;;;5059785;28;46601;-79
2021/06/27 01:11:47;;;;;;;;;21.67;17.67;;;;;;;;5053280;28;46323;-78
2021/06/27 01:14:13;;;;;;;;;18.00;16.00;;;;;;;;5054652;28;46021;-78
2021/06/27 01:16:40;;;;;;;;;20.00;18.00;;;;;;;;5053963;28;46532;-78
2021/06/27 01:19:06;;;;;;;;;26.50;23.00;;;;;;;;5053225;28;45389;-78
2021/06/27 01:21:33;;;;;;;;;22.25;19.25;;;;;;;;5059191;28;47500;-77
2021/06/27 01:23:58;;;;;;;;;22.25;19.75;;;;;;;;5054455;28;45436;-78
2021/06/27 01:26:24;;;;;;;;;21.67;19.00;;;;;;;;5054757;28;45560;-77
2021/06/27 01:28:49;;;;;;;;;20.33;19.00;;;;;;;;5053206;28;45584;-78
2021/06/27 01:31:14;;;;;;;;;24.67;18.33;;;;;;;;5056390;28;46179;-77
2021/06/27 01:33:40;;;;;;;;;19.00;16.75;;;;;;;;5055015;28;45533;-78
2021/06/27 01:36:06;;;;;;;;;19.50;19.50;;;;;;;;5058248;28;45490;-78
2021/06/27 01:38:35;;;;;;;;;19.00;17.75;;;;;;;;5051883;28;45501;-77
2021/06/27 01:41:00;;;;;;;;;25.50;18.50;;;;;;;;5063426;28;45988;-78
2021/06/27 01:43:25;;;;;;;;;21.33;19.00;;;;;;;;5064673;28;46666;-77
2021/06/27 01:45:59;;;;;;;;;18.00;17.50;;;;;;;;5055650;28;45477;-78
2021/06/27 01:48:24;;;;;;;;;25.25;20.00;;;;;;;;5054454;28;45592;-78
2021/06/27 01:50:51;;;;;;;;;18.50;16.25;;;;;;;;5056103;28;45902;-77
2021/06/27 01:53:17;;;;;;;;;24.25;19.25;;;;;;;;5054550;28;45870;-77
2021/06/27 01:55:42;;;;;;;;;20.75;18.50;;;;;;;;5064720;28;46015;-79
2021/06/27 01:58:08;;;;;;;;;19.25;16.50;;;;;;;;5053438;28;45261;-77
2021/06/27 02:00:33;;;;;;;;;20.25;17.25;;;;;;;;5054943;28;45694;-79
2021/06/27 02:03:00;;;;;;;;;23.00;19.00;;;;;;;;5057756;28;45592;-78
2021/06/27 02:05:26;;;;;;;;;22.75;21.25;;;;;;;;5052762;28;45316;-78
2021/06/27 02:07:51;;;;;;;;;19.50;19.25;;;;;;;;5057944;28;45529;-79
2021/06/27 02:10:18;;;;;;;;;24.50;21.50;;;;;;;;5054489;28;45838;-79
2021/06/27 02:12:43;;;;;;;;;20.75;20.50;;;;;;;;5054690;28;45400;-78
2021/06/27 02:15:09;;;;;;;;;25.25;20.25;;;;;;;;5084728;27;45533;-79
2021/06/27 02:17:35;;;;;;;;;26.75;20.50;;;;;;;;5052049;28;45472;-78
2021/06/27 02:20:01;;;;;;;;;25.75;20.25;;;;;;;;5053424;28;45494;-79
2021/06/27 02:22:26;;;;;;;;;23.00;23.00;;;;;;;;5053763;28;45452;-81
2021/06/27 02:24:51;;;;;;;;;21.00;21.00;;;;;;;;5060518;28;45439;-79
2021/06/27 02:27:17;;;;;;;;;22.00;19.50;;;;;;;;5057906;28;45508;-77
2021/06/27 02:29:42;;;;;;;;;22.50;19.75;;;;;;;;5054667;28;48191;-78
2021/06/27 02:32:08;;;;;;;;;24.25;18.75;;;;;;;;5054922;28;45528;-78
2021/06/27 02:34:33;;;;;;;;;24.75;18.50;;;;;;;;5062160;28;45610;-79
2021/06/27 02:36:59;;;;;;;;;25.50;20.75;;;;;;;;5052833;28;45492;-79
2021/06/27 02:39:24;;;;;;;;;21.50;18.75;;;;;;;;5060097;28;45506;-78
2021/06/27 02:41:49;;;;;;;;;23.25;21.00;;;;;;;;5054985;28;45546;-77
2021/06/27 02:44:15;;;;;;;;;27.00;18.75;;;;;;;;5057739;28;45519;-77
2021/06/27 02:46:40;;;;;;;;;23.33;21.33;;;;;;;;5052520;28;45463;-77
2021/06/27 02:49:05;;;;;;;;;18.00;18.00;;;;;;;;5052374;28;47234;-77
2021/06/27 02:51:31;;;;;;;;;19.33;19.33;;;;;;;;5063775;28;45481;-79
2021/06/27 02:53:56;;;;;;;;;24.67;19.00;;;;;;;;5055534;28;45416;-78
2021/06/27 02:56:21;;;;;;;;;23.75;21.75;;;;;;;;5048703;28;45496;-78
2021/06/27 02:58:48;;;;;;;;;21.25;18.75;;;;;;;;5051004;28;45887;-78
2021/06/27 03:01:13;;;;;;;;;20.75;18.50;;;;;;;;5053738;28;45489;-78
2021/06/27 03:03:39;;;;;;;;;20.00;19.25;;;;;;;;5055265;28;45557;-78
2021/06/27 03:06:04;;;;;;;;;22.50;20.75;;;;;;;;5052004;28;45465;-78
2021/06/27 03:08:31;;;;;;;;;25.00;22.75;;;;;;;;5049672;28;45472;-78
2021/06/27 03:10:56;;;;;;;;;19.75;18.25;;;;;;;;5057436;28;45510;-78
2021/06/27 03:13:21;;;;;;;;;19.75;18.75;;;;;;;;5062691;28;45452;-77
2021/06/27 03:15:47;;;;;;;;;20.25;18.00;;;;;;;;5053836;28;45694;-78
2021/06/27 03:18:12;;;;;;;;;21.00;19.33;;;;;;;;5052824;28;45498;-78
2021/06/27 03:20:37;;;;;;;;;22.50;20.50;;;;;;;;5052214;28;45437;-78
2021/06/27 03:23:03;;;;;;;;;21.00;19.33;;;;;;;;5060551;28;45385;-79
2021/06/27 03:25:29;;;;;;;;;20.00;18.33;;;;;;;;5052430;28;45421;-78
2021/06/27 03:27:54;;;;;;;;;22.25;19.00;;;;;;;;5053153;28;45557;-77
2021/06/27 03:30:20;;;;;;;;;23.50;21.25;;;;;;;;5051446;28;45511;-80
2021/06/27 03:32:45;;;;;;;;;26.25;19.50;;;;;;;;5051592;28;45601;-77
2021/06/27 03:35:11;;;;;;;;;21.75;21.25;;;;;;;;5051443;28;45501;-78
2021/06/27 03:37:39;;;;;;;;;22.25;18.75;;;;;;;;5050552;28;48670;-79
2021/06/27 03:40:05;;;;;;;;;27.50;22.50;;;;;;;;5057563;28;45485;-78
2021/06/27 03:42:30;;;;;;;;;24.00;18.50;;;;;;;;5052838;28;45798;-78
2021/06/27 03:44:55;;;;;;;;;18.25;18.25;;;;;;;;5055713;28;45467;-79
2021/06/27 03:47:21;;;;;;;;;20.50;17.50;;;;;;;;5060449;27;46073;-79
2021/06/27 03:49:46;;;;;;;;;15.50;15.50;;;;;;;;5052138;28;45437;-77
2021/06/27 03:52:11;;;;;;;;;26.00;20.33;;;;;;;;5057429;28;45529;-78
2021/06/27 03:54:36;;;;;;;;;23.00;18.67;;;;;;;;5054141;28;45379;-78
2021/06/27 03:57:02;;;;;;;;;22.33;18.67;;;;;;;;5050726;28;48373;-78
2021/06/27 03:59:27;;;;;;;;;23.25;21.00;;;;;;;;5051548;28;45962;-78
2021/06/27 04:01:52;;;;;;;;;21.00;17.33;;;;;;;;5051114;28;45565;-78
2021/06/27 04:04:18;;;;;;;;;22.00;19.25;;;;;;;;5060840;28;45533;-77
2021/06/27 04:06:43;;;;;;;;;23.33;21.00;;;;;;;;5053481;28;45472;-78
2021/06/27 04:09:08;;;;;;;;;23.00;19.67;;;;;;;;5056996;28;45557;-78
2021/06/27 04:11:33;;;;;;;;;19.33;18.00;;;;;;;;5053042;28;45443;-78
2021/06/27 04:13:59;;;;;;;;;20.00;18.33;;;;;;;;5051306;28;45403;-77
2021/06/27 04:16:25;;;;;;;;;21.50;18.00;;;;;;;;5058180;28;46089;-80
2021/06/27 04:18:50;;;;;;;;;22.00;20.25;;;;;;;;5061610;28;45771;-78
2021/06/27 04:21:15;;;;;;;;;19.50;18.50;;;;;;;;5053262;28;45559;-79
2021/06/27 04:23:41;;;;;;;;;18.75;17.50;;;;;;;;5052491;28;45689;-77
2021/06/27 04:26:06;;;;;;;;;19.25;18.25;;;;;;;;5051633;28;48301;-77
2021/06/27 04:28:31;;;;;;;;;21.75;20.50;;;;;;;;5053326;28;45406;-80
2021/06/27 04:30:57;;;;;;;;;22.50;20.00;;;;;;;;5051101;28;45307;-77
2021/06/27 04:33:22;;;;;;;;;24.75;19.25;;;;;;;;5054247;28;45459;-77
2021/06/27 04:35:47;;;;;;;;;27.50;20.75;;;;;;;;5053299;28;48480;-78
2021/06/27 04:38:16;;;;;;;;;21.67;20.67;;;;;;;;5054899;28;45631;-78
2021/06/27 04:40:42;;;;;;;;;20.00;19.00;;;;;;;;5057761;28;46281;-78
2021/06/27 04:43:07;;;;;;;;;20.67;18.33;;;;;;;;5061314;28;45386;-78
2021/06/27 04:45:33;;;;;;;;;20.33;20.00;;;;;;;;5053060;28;45467;-77
2021/06/27 04:48:01;;;;;;;;;20.25;19.50;;;;;;;;5052181;28;46078;-79
2021/06/27 04:50:27;;;;;;;;;21.50;18.00;;;;;;;;5060426;28;45537;-78
2021/06/27 04:52:52;;;;;;;;;19.00;19.00;;;;;;;;5060719;28;45483;-78
2021/06/27 04:55:18;;;;;;;;;24.75;19.75;;;;;;;;5050093;28;45861;-79
2021/06/27 04:57:43;;;;;;;;;29.75;20.75;;;;;;;;5054082;28;45516;-79
2021/06/27 05:00:08;;;;;;;;;21.00;19.33;;;;;;;;5051110;28;45672;-78
2021/06/27 05:02:34;;;;;;;;;25.00;21.75;;;;;;;;5051056;28;45268;-80
2021/06/27 05:04:59;;;;;;;;;22.00;20.50;;;;;;;;5051098;28;45474;-79
2021/06/27 05:07:24;;;;;;;;;19.67;19.67;;;;;;;;5050591;28;46724;-78
2021/06/27 05:09:49;;;;;;;;;20.67;19.00;;;;;;;;5085422;27;45407;-79
2021/06/27 05:12:15;;;;;;;;;20.00;20.00;;;;;;;;5054311;28;45601;-78
2021/06/27 05:14:40;;;;;;;;;23.00;20.75;;;;;;;;5050769;28;45458;-78
2021/06/27 05:17:05;;;;;;;;;26.67;18.67;;;;;;;;5058344;28;45468;-79
2021/06/27 05:19:31;;;;;;;;;19.67;17.67;;;;;;;;5049783;28;45390;-78
2021/06/27 05:21:56;;;;;;;;;22.33;19.00;;;;;;;;5060075;28;45454;-78
2021/06/27 05:24:21;;;;;;;;;21.00;20.33;;;;;;;;5050595;28;45538;-79
2021/06/27 05:26:46;;;;;;;;;21.00;19.33;;;;;;;;5054159;28;45507;-77
2021/06/27 05:29:12;;;;;;;;;25.50;23.50;;;;;;;;5053783;28;45410;-79
2021/06/27 05:31:37;;;;;;;;;21.33;18.67;;;;;;;;5060748;28;45547;-85
2021/06/27 05:34:03;;;;;;;;;27.67;20.33;;;;;;;;5050010;28;47169;-77
2021/06/27 05:36:28;;;;;;;;;22.00;20.25;;;;;;;;5058310;28;45498;-78
2021/06/27 05:38:53;;;;;;;;;22.25;19.75;;;;;;;;5054012;28;45531;-79
2021/06/27 05:41:19;;;;;;;;;24.67;20.33;;;;;;;;5053945;28;45604;-78
2021/06/27 05:43:44;;;;;;;;;22.50;19.50;;;;;;;;5058168;28;45529;-78
2021/06/27 05:46:09;;;;;;;;;23.75;22.00;;;;;;;;5054533;28;45430;-78
2021/06/27 05:48:35;;;;;;;;;23.75;21.75;;;;;;;;5059153;28;45425;-80
2021/06/27 05:51:00;;;;;;;;;27.00;20.33;;;;;;;;5051242;28;45425;-79
2021/06/27 05:53:25;;;;;;;;;20.33;18.00;;;;;;;;5052867;28;46253;-78
2021/06/27 05:56:08;;;;;;;;;24.50;20.75;;;;;;;;5060406;28;45449;-78
2021/06/27 05:58:35;;;;;;;;;22.00;19.00;;;;;;;;5053545;28;45506;-80
2021/06/27 06:01:00;;;;;;;;;24.50;18.75;;;;;;;;5057998;28;45632;-77
2021/06/27 06:03:25;;;;;;;;;24.67;21.00;;;;;;;;5074625;27;47101;-78
2021/06/27 06:05:51;;;;;;;;;18.33;17.33;;;;;;;;5050595;28;45391;-77
2021/06/27 06:08:16;;;;;;;;;23.00;20.00;;;;;;;;5053238;28;48609;-78
2021/06/27 06:10:41;;;;;;;;;27.00;21.67;;;;;;;;5057978;28;45784;-77
2021/06/27 06:13:07;;;;;;;;;21.00;19.33;;;;;;;;5052709;28;45429;-80
2021/06/27 06:15:32;;;;;;;;;24.00;21.25;;;;;;;;5057615;28;45831;-77
2021/06/27 06:17:57;;;;;;;;;23.00;20.00;;;;;;;;5052216;28;45375;-77
2021/06/27 06:20:22;;;;;;;;;26.67;21.00;;;;;;;;5053178;28;45546;-78
2021/06/27 06:22:48;;;;;;;;;22.33;20.00;;;;;;;;5054837;28;46290;-77
2021/06/27 06:25:13;;;;;;;;;24.67;19.67;;;;;;;;5052351;28;45699;-79
2021/06/27 06:27:38;;;;;;;;;20.75;20.00;;;;;;;;5052576;28;45555;-82
2021/06/27 06:30:03;;;;;;;;;26.33;23.00;;;;;;;;5051659;28;45472;-77
2021/06/27 06:32:29;;;;;;;;;22.75;20.75;;;;;;;;5056242;28;45575;-78
2021/06/27 06:34:54;;;;;;;;;22.00;20.67;;;;;;;;5062406;28;45469;-78
2021/06/27 06:37:19;;;;;;;;;23.25;20.00;;;;;;;;5050794;28;45519;-78
2021/06/27 06:39:45;;;;;;;;;22.25;19.25;;;;;;;;5054440;28;45346;-77
2021/06/27 06:42:10;;;;;;;;;24.00;22.00;;;;;;;;5049561;28;48132;-77
2021/06/27 06:44:36;;;;;;;;;22.50;19.25;;;;;;;;5045546;28;45755;-78
2021/06/27 06:47:01;;;;;;;;;23.00;23.00;;;;;;;;5053093;28;45543;-77
2021/06/27 06:49:26;;;;;;;;;18.25;17.75;;;;;;;;5061814;27;45826;-77
2021/06/27 06:51:52;;;;;;;;;28.75;19.25;;;;;;;;5054073;28;46438;-77
2021/06/27 06:54:17;;;;;;;;;25.00;19.25;;;;;;;;5053131;28;45506;-77
2021/06/27 06:56:42;;;;;;;;;23.33;19.00;;;;;;;;5052096;28;45354;-77
2021/06/27 06:59:07;;;;;;;;;23.00;18.67;;;;;;;;5051036;28;45289;-78
2021/06/27 07:01:33;;;;;;;;;25.33;22.00;;;;;;;;5054454;28;46234;-78
2021/06/27 07:03:58;;;;;;;;;21.67;18.00;;;;;;;;5056186;28;45678;-77
2021/06/27 07:06:23;;;;;;;;;31.00;23.50;;;;;;;;5051185;28;45462;-77
2021/06/27 07:08:48;;;;;;;;;22.67;19.33;;;;;;;;5052901;28;45548;-78
2021/06/27 07:11:14;;;;;;;;;20.25;20.00;;;;;;;;5051227;28;45349;-79
2021/06/27 07:13:39;;;;;;;;;22.67;19.33;;;;;;;;5051698;28;45470;-77
2021/06/27 07:16:04;;;;;;;;;20.33;20.33;;;;;;;;5058759;28;46806;-77
2021/06/27 07:18:30;;;;;;;;;26.25;21.75;;;;;;;;5053530;28;45427;-77
2021/06/27 07:20:55;;;;;;;;;23.33;20.67;;;;;;;;5049793;28;46384;-78
2021/06/27 07:23:20;;;;;;;;;19.25;17.50;;;;;;;;5052423;28;45649;-78
2021/06/27 07:25:45;;;;;;;;;23.33;21.33;;;;;;;;5051586;28;45589;-77
2021/06/27 07:28:11;;;;;;;;;23.33;19.00;;;;;;;;5060332;28;45568;-78
2021/06/27 07:30:36;;;;;;;;;21.00;18.25;;;;;;;;5052453;28;46168;-78
2021/06/27 07:33:01;;;;;;;;;18.50;18.00;;;;;;;;5056081;28;45651;-78
2021/06/27 07:35:27;;;;;;;;;19.00;17.33;;;;;;;;5052494;28;45643;-77
2021/06/27 07:37:52;;;;;;;;;15.75;14.25;;;;;;;;5050646;28;45515;-77
2021/06/27 07:40:17;;;;;;;;;18.33;16.00;;;;;;;;5050076;28;47351;-78
2021/06/27 07:42:43;;;;;;;;;20.00;16.00;;;;;;;;5059159;28;45441;-77
2021/06/27 07:45:09;;;;;;;;;16.75;15.50;;;;;;;;5052324;28;45494;-77
2021/06/27 07:47:34;;;;;;;;;15.75;13.25;;;;;;;;5054396;28;45549;-76
2021/06/27 07:49:59;;;;;;;;;12.25;12.25;;;;;;;;5051174;28;45635;-77
2021/06/27 07:52:24;;;;;;;;;18.25;16.00;;;;;;;;5062876;28;45303;-77
2021/06/27 07:54:50;;;;;;;;;16.00;15.33;;;;;;;;5054212;28;45464;-78
2021/06/27 07:57:15;;;;;;;;;14.33;14.33;;;;;;;;5056804;28;45554;-77
2021/06/27 07:59:40;;;;;;;;;15.33;13.67;;;;;;;;5055913;28;45453;-80
2021/06/27 08:02:05;;;;;;;;;15.25;14.50;;;;;;;;5043941;27;45511;-77
2021/06/27 08:04:31;;;;;;;;;18.50;16.75;;;;;;;;5050929;28;45438;-76
2021/06/27 08:06:56;;;;;;;;;18.75;15.75;;;;;;;;5050577;28;45451;-77
2021/06/27 08:09:22;;;;;;;;;20.00;18.00;;;;;;;;5040134;28;45828;-78
2021/06/27 08:11:47;;;;;;;;;17.00;16.25;;;;;;;;5048766;28;45611;-77
2021/06/27 08:14:12;;;;;;;;;19.33;17.67;;;;;;;;5049404;28;45488;-77
2021/06/27 08:16:38;;;;;;;;;17.67;14.00;;;;;;;;5058945;28;47341;-76
2021/06/27 08:19:03;;;;;;;;;14.50;14.50;;;;;;;;5051569;28;45890;-78
2021/06/27 08:21:29;;;;;;;;;19.50;16.75;;;;;;;;5050715;28;45642;-77
2021/06/27 08:23:54;;;;;;;;;15.00;14.33;;;;;;;;5049699;28;45664;-77
2021/06/27 08:26:23;;;;;;;;;14.33;13.00;;;;;;;;5050410;28;45473;-77
2021/06/27 08:28:48;;;;;;;;;15.75;13.75;;;;;;;;5050507;28;47499;-82
2021/06/27 08:31:13;;;;;;;;;16.00;16.00;;;;;;;;5048369;28;45885;-78
2021/06/27 08:33:38;;;;;;;;;17.33;15.67;;;;;;;;5046672;28;45437;-78
2021/06/27 08:36:04;;;;;;;;;15.33;13.67;;;;;;;;5052104;28;46128;-78
2021/06/27 08:38:29;;;;;;;;;15.00;14.50;;;;;;;;5050861;28;46500;-84
2021/06/27 08:40:56;;;;;;;;;16.00;14.67;;;;;;;;5052742;28;45551;-79
2021/06/27 08:43:26;;;;;;;;;22.50;17.25;;;;;;;;5049493;28;45607;-76
2021/06/27 08:45:53;;;;;;;;;20.00;16.00;;;;;;;;5046908;28;46663;-77
2021/06/27 08:48:22;;;;;;;;;17.50;14.50;;;;;;;;5048705;28;46995;-76
2021/06/27 08:50:48;;;;;;;;;15.00;14.00;;;;;;;;5041171;28;46127;-77
2021/06/27 08:53:13;;;;;;;;;18.75;14.00;;;;;;;;5050119;28;45619;-76
2021/06/27 08:55:38;;;;;;;;;16.00;15.00;;;;;;;;5050228;28;45899;-77
2021/06/27 08:58:03;;;;;;;;;13.33;12.33;;;;;;;;5049435;28;45635;-76
2021/06/27 09:00:29;;;;;;;;;13.00;13.00;;;;;;;;5052399;28;45586;-77
2021/06/27 09:02:54;;;;;;;;;18.33;14.33;;;;;;;;5048651;28;45888;-77
2021/06/27 09:05:20;;;;;;;;;15.00;14.25;;;;;;;;5050358;28;45530;-77
2021/06/27 09:07:46;;;;;;;;;19.75;14.00;;;;;;;;5049691;28;45613;-77
2021/06/27 09:10:17;;;;;;;;;14.00;13.75;;;;;;;;5050247;28;45552;-77
2021/06/27 09:12:48;;;;;;;;;15.50;14.50;;;;;;;;5054413;28;45370;-74
2021/06/27 09:15:14;;;;;;;;;21.50;15.75;;;;;;;;5052401;28;45565;-77
2021/06/27 09:17:40;;;;;;;;;17.75;16.00;;;;;;;;5052338;28;45485;-82
2021/06/27 09:20:08;;;;;;;;;18.25;15.00;;;;;;;;5051622;28;46040;-77
2021/06/27 09:22:43;;;;;;;;;20.00;17.50;;;;;;;;5053699;28;45766;-79
2021/06/27 09:25:22;;;;;;;;;17.50;15.50;;;;;;;;5053044;28;46728;-76
2021/06/27 09:28:06;;;;;;;;;15.25;13.50;;;;;;;;5054685;28;45482;-81
2021/06/27 09:30:33;;;;;;;;;20.75;19.50;;;;;;;;5054796;28;45907;-79
2021/06/27 09:32:58;;;;;;;;;17.25;16.25;;;;;;;;5054033;28;45442;-78
2021/06/27 09:35:39;;;;;;;;;17.00;15.33;;;;;;;;5052503;28;45698;-78
2021/06/27 09:38:17;;;;;;;;;17.50;17.25;;;;;;;;5040974;28;46604;-85
2021/06/27 09:40:42;;;;;;;;;14.00;14.00;;;;;;;;5055296;28;45287;-79
2021/06/27 09:43:08;;;;;;;;;13.67;13.67;;;;;;;;5054667;28;45466;-78
2021/06/27 09:45:56;;;;;;;;;32.50;30.50;;;;;;;;5055781;28;45572;-79
2021/06/27 09:48:21;;;;;;;;;19.25;17.50;;;;;;;;5053756;28;45613;-77
2021/06/27 09:50:46;;;;;;;;;19.75;17.00;;;;;;;;5053653;28;45970;-77
2021/06/27 09:53:30;;;;;;;;;18.75;16.75;;;;;;;;5053503;28;45550;-77
2021/06/27 09:55:56;;;;;;;;;18.00;17.00;;;;;;;;5052363;28;45491;-79
2021/06/27 09:58:21;;;;;;;;;17.50;14.50;;;;;;;;5054622;28;46679;-81
2021/06/27 10:00:46;;;;;;;;;17.75;17.50;;;;;;;;5057493;28;45409;-75
2021/06/27 10:03:11;;;;;;;;;17.67;16.33;;;;;;;;5045084;28;45561;-80
2021/06/27 10:05:37;;;;;;;;;20.00;17.33;;;;;;;;5051847;28;45499;-77
2021/06/27 10:08:02;;;;;;;;;18.00;17.25;;;;;;;;5050798;28;47554;-77
2021/06/27 10:10:27;;;;;;;;;20.50;19.25;;;;;;;;5061711;28;45431;-77
2021/06/27 10:12:53;;;;;;;;;20.50;19.00;;;;;;;;5060261;28;45659;-77
2021/06/27 10:15:18;;;;;;;;;25.33;19.33;;;;;;;;5059360;28;45525;-77
2021/06/27 10:17:44;;;;;;;;;21.75;20.00;;;;;;;;5050039;28;48471;-78
2021/06/27 10:20:11;;;;;;;;;23.25;18.00;;;;;;;;5059983;28;45522;-77
2021/06/27 10:22:36;;;;;;;;;23.75;22.00;;;;;;;;5037535;28;45356;-76
2021/06/27 10:25:03;;;;;;;;;25.25;21.50;;;;;;;;5047223;28;45396;-76
2021/06/27 10:27:28;;;;;;;;;22.00;20.00;;;;;;;;5062976;28;47314;-76
2021/06/27 10:29:54;;;;;;;;;24.75;21.75;;;;;;;;5049822;28;45711;-76
2021/06/27 10:32:20;;;;;;;;;22.50;20.50;;;;;;;;5049923;28;45469;-77
2021/06/27 10:34:46;;;;;;;;;22.75;21.00;;;;;;;;5049035;28;45775;-77
2021/06/27 10:37:15;;;;;;;;;20.50;18.75;;;;;;;;5057957;28;47107;-77
2021/06/27 10:39:59;;;;;;;;;18.75;16.00;;;;;;;;5053162;28;45618;-78
2021/06/27 10:42:43;;;;;;;;;18.75;16.75;;;;;;;;5067615;28;45352;-76
2021/06/27 10:45:09;;;;;;;;;20.00;19.50;;;;;;;;5046231;28;52172;-77
2021/06/27 10:47:34;;;;;;;;;19.00;16.25;;;;;;;;5072968;27;48723;-77
2021/06/27 10:50:10;;;;;;;;;19.00;15.75;;;;;;;;5040734;28;45572;-77
2021/06/27 10:52:51;;;;;;;;;19.75;17.00;;;;;;;;5045742;28;45419;-78
2021/06/27 10:55:23;;;;;;;;;20.75;17.50;;;;;;;;5036379;28;45541;-76
2021/06/27 10:58:15;;;;;;;;;16.75;14.75;;;;;;;;5035454;28;46346;-76
2021/06/27 11:00:53;;;;;;;;;41.75;30.25;;;;;;;;5035695;28;45443;-78
2021/06/27 11:03:27;;;;;;;;;21.75;17.50;;;;;;;;5039808;28;45954;-76
2021/06/27 11:05:59;;;;;;;;;19.00;17.75;;;;;;;;5038792;28;45721;-76
2021/06/27 11:08:48;;;;;;;;;14.75;13.50;;;;;;;;5047099;28;46712;-76
2021/06/27 11:11:15;;;;;;;;;13.50;13.25;;;;;;;;5039557;28;45962;-76
2021/06/27 11:13:41;;;;;;;;;16.75;15.50;;;;;;;;5048179;28;45483;-76
2021/06/27 11:16:08;;;;;;;;;19.75;16.50;;;;;;;;5050772;28;45458;-77
2021/06/27 11:18:35;;;;;;;;;15.50;15.00;;;;;;;;5046886;28;46810;-76
2021/06/27 11:21:02;;;;;;;;;14.50;12.00;;;;;;;;5036665;28;45455;-77
2021/06/27 11:23:46;;;;;;;;;16.00;12.50;;;;;;;;5038422;28;45439;-77
2021/06/27 11:26:30;;;;;;;;;14.25;10.25;;;;;;;;5049253;28;45485;-77
2021/06/27 11:28:55;;;;;;;;;12.25;12.00;;;;;;;;5052084;28;52113;-78
2021/06/27 11:31:25;;;;;;;;;11.75;10.00;;;;;;;;5052187;28;46376;-78
2021/06/27 11:34:09;;;;;;;;;15.75;11.50;;;;;;;;5059591;28;45587;-78
2021/06/27 11:36:34;;;;;;;;;13.00;12.00;;;;;;;;5055966;28;45566;-77
2021/06/27 11:38:59;;;;;;;;;14.75;11.25;;;;;;;;5048678;28;51256;-77
2021/06/27 11:41:25;;;;;;;;;13.00;12.00;;;;;;;;5052998;28;45395;-77
2021/06/27 11:43:53;;;;;;;;;16.25;12.75;;;;;;;;5054691;28;45305;-77
2021/06/27 11:46:30;;;;;;;;;12.50;10.75;;;;;;;;5056935;28;45485;-78
2021/06/27 11:48:57;;;;;;;;;12.50;12.00;;;;;;;;5050370;28;48380;-77
2021/06/27 11:51:32;;;;;;;;;10.00;10.00;;;;;;;;5051458;28;46021;-77
2021/06/27 11:53:57;;;;;;;;;10.25;10.25;;;;;;;;5047622;28;45583;-76
2021/06/27 11:56:22;;;;;;;;;13.75;11.25;;;;;;;;5048714;28;51819;-77
2021/06/27 11:58:48;;;;;;;;;16.25;13.25;;;;;;;;5048925;28;46503;-76
2021/06/27 12:01:13;;;;;;;;;11.00;11.00;;;;;;;;5049809;28;45505;-77
2021/06/27 12:03:46;;;;;;;;;13.00;12.00;;;;;;;;5050883;28;45536;-77
2021/06/27 12:06:12;;;;;;;;;9.00;9.00;;;;;;;;5048492;28;45693;-76
2021/06/27 12:08:41;;;;;;;;;13.50;10.50;;;;;;;;5052417;28;45445;-78
2021/06/27 12:11:06;;;;;;;;;10.00;10.00;;;;;;;;5051725;28;45377;-77
2021/06/27 12:13:34;;;;;;;;;13.00;9.67;;;;;;;;5050686;28;45722;-76
2021/06/27 12:15:59;;;;;;;;;9.00;9.00;;;;;;;;5044165;28;45485;-77
2021/06/27 12:18:29;;;;;;;;;11.25;9.00;;;;;;;;5051904;28;46172;-77
2021/06/27 12:21:00;;;;;;;;;11.75;10.75;;;;;;;;5053469;28;45473;-77
2021/06/27 12:23:33;;;;;;;;;10.75;8.25;;;;;;;;5049000;28;45565;-76
2021/06/27 12:26:05;;;;;;;;;7.50;7.50;;;;;;;;5050794;28;45614;-77
2021/06/27 12:28:33;;;;;;;;;8.00;8.00;;;;;;;;5047324;28;46177;-76
2021/06/27 12:31:19;;;;;;;;;10.75;9.25;;;;;;;;5041527;28;45668;-79
2021/06/27 12:34:09;;;;;;;;;8.00;7.00;;;;;;;;5052526;28;45523;-79
2021/06/27 12:36:36;;;;;;;;;9.75;7.00;;;;;;;;5067648;27;45912;-78
2021/06/27 12:39:07;;;;;;;;;9.00;9.00;;;;;;;;5049969;28;45466;-76
2021/06/27 12:41:35;;;;;;;;;8.75;8.00;;;;;;;;5047697;28;45403;-76
2021/06/27 12:44:02;;;;;;;;;7.00;7.00;;;;;;;;5048150;27;45553;-77
2021/06/27 12:46:28;;;;;;;;;8.25;7.00;;;;;;;;5039044;28;45451;-77
2021/06/27 12:49:00;;;;;;;;;9.25;8.50;;;;;;;;5036845;28;52328;-78
2021/06/27 12:51:26;;;;;;;;;9.00;9.00;;;;;;;;5052878;28;45507;-77
2021/06/27 12:53:58;;;;;;;;;9.00;8.00;;;;;;;;5051845;28;45528;-77
2021/06/27 12:56:36;;;;;;;;;7.00;7.00;;;;;;;;5054232;28;45777;-77
2021/06/27 12:59:01;;;;;;;;;8.00;7.00;;;;;;;;5053950;28;47416;-77
2021/06/27 13:01:27;;;;;;;;;8.00;6.00;;;;;;;;5053198;28;45406;-77
2021/06/27 13:03:58;;;;;;;;;7.33;7.33;;;;;;;;5053139;28;45507;-78
2021/06/27 13:06:24;;;;;;;;;7.25;7.25;;;;;;;;5053839;28;45399;-78
2021/06/27 13:08:49;;;;;;;;;8.00;6.25;;;;;;;;5050713;28;45595;-78
2021/06/27 13:11:14;;;;;;;;;8.00;6.00;;;;;;;;5048671;28;45580;-77
2021/06/27 13:13:39;;;;;;;;;6.00;6.00;;;;;;;;5051309;28;45563;-77
2021/06/27 13:16:15;;;;;;;;;6.00;6.00;;;;;;;;5064873;28;45648;-77
2021/06/27 13:18:40;;;;;;;;;8.00;6.50;;;;;;;;5055837;28;46165;-78
2021/06/27 13:21:16;;;;;;;;;6.50;6.00;;;;;;;;5056521;28;45425;-79
2021/06/27 13:23:41;;;;;;;;;6.00;6.00;;;;;;;;5055671;28;45484;-77
2021/06/27 13:26:13;;;;;;;;;7.33;6.33;;;;;;;;5053252;28;45507;-77
2021/06/27 13:28:43;;;;;;;;;8.00;7.25;;;;;;;;5053210;28;48416;-78
2021/06/27 13:31:10;;;;;;;;;5.50;5.50;;;;;;;;5051058;28;45445;-77
2021/06/27 13:33:36;;;;;;;;;5.75;5.75;;;;;;;;5065155;27;45538;-77
2021/06/27 13:36:09;;;;;;;;;7.00;5.75;;;;;;;;5047554;28;45358;-76
2021/06/27 13:38:35;;;;;;;;;6.00;4.50;;;;;;;;5049784;28;47209;-76
2021/06/27 13:41:02;;;;;;;;;6.00;6.00;;;;;;;;5061832;28;45469;-76
2021/06/27 13:43:27;;;;;;;;;5.50;5.50;;;;;;;;5042591;28;45669;-75
2021/06/27 13:45:53;;;;;;;;;4.75;4.75;;;;;;;;5050897;28;45419;-75
2021/06/27 13:48:21;;;;;;;;;5.25;5.25;;;;;;;;5051273;28;46535;-78
2021/06/27 13:50:47;;;;;;;;;6.75;6.75;;;;;;;;5050699;28;45600;-76
2021/06/27 13:53:12;;;;;;;;;7.00;7.00;;;;;;;;5057917;27;45956;-76
2021/06/27 13:55:37;;;;;;;;;4.50;4.50;;;;;;;;5062647;28;45567;-75
2021/06/27 13:58:05;;;;;;;;;7.75;5.50;;;;;;;;5051216;28;48191;-76
2021/06/27 14:00:30;;;;;;;;;8.25;8.25;;;;;;;;5053928;28;45507;-76
2021/06/27 14:02:55;;;;;;;;;8.75;8.00;;;;;;;;5053092;28;45473;-76
2021/06/27 14:05:22;;;;;;;;;10.00;7.50;;;;;;;;5044894;28;45862;-75
2021/06/27 14:07:48;;;;;;;;;9.50;7.25;;;;;;;;5051413;28;46383;-75
2021/06/27 14:10:15;;;;;;;;;7.75;7.75;;;;;;;;5056969;28;45829;-76
2021/06/27 14:12:41;;;;;;;;;8.25;7.25;;;;;;;;5053934;28;45319;-76
2021/06/27 14:15:07;;;;;;;;;8.25;8.25;;;;;;;;5049996;28;46026;-76
2021/06/27 14:17:32;;;;;;;;;6.75;6.75;;;;;;;;5050057;28;47786;-76
2021/06/27 14:19:57;;;;;;;;;9.00;7.25;;;;;;;;5049315;28;45566;-76